createdAt,value
2022-11-20T00:01:59.204Z,3.03
2022-11-20T00:04:33.158Z,3.33
2022-11-20T00:07:06.789Z,3.00
2022-11-20T00:09:40.573Z,3.53
2022-11-20T00:12:15.619Z,3.40
2022-11-20T00:14:49.518Z,3.60
2022-11-20T00:17:23.037Z,3.28
2022-11-20T00:19:57.019Z,3.10
2022-11-20T00:22:30.527Z,2.70
2022-11-20T00:25:04.701Z,2.72
2022-11-20T00:27:39.949Z,3.35
2022-11-20T00:30:15.161Z,2.80
2022-11-20T00:32:48.936Z,3.00
2022-11-20T00:35:22.620Z,2.78
2022-11-20T00:37:56.214Z,3.05
2022-11-20T00:40:29.950Z,3.67
2022-11-20T00:43:05.158Z,3.00
2022-11-20T00:45:39.112Z,3.05
2022-11-20T00:48:12.713Z,3.25
2022-11-20T00:50:46.557Z,2.80
2022-11-20T00:53:20.307Z,3.08
2022-11-20T00:55:57.757Z,3.00
2022-11-20T00:58:34.396Z,3.10
2022-11-20T01:01:10.820Z,3.28
2022-11-20T01:03:46.121Z,2.90
2022-11-20T01:06:22.096Z,3.17
2022-11-20T01:08:57.535Z,2.97
2022-11-20T01:11:33.703Z,3.20
2022-11-20T01:14:11.656Z,2.47
2022-11-20T01:16:48.324Z,2.95
2022-11-20T01:19:23.586Z,3.38
2022-11-20T01:21:57.627Z,3.10
2022-11-20T01:24:31.095Z,2.53
2022-11-20T01:27:04.769Z,3.05
2022-11-20T01:29:39.613Z,3.28
2022-11-20T01:32:13.303Z,3.22
2022-11-20T01:34:47.038Z,2.85
2022-11-20T01:37:20.729Z,2.92
2022-11-20T01:39:54.314Z,3.20
2022-11-20T01:42:45.971Z,3.00
2022-11-20T01:45:54.817Z,3.38
2022-11-20T01:48:34.121Z,3.47
2022-11-20T01:51:14.868Z,2.60
2022-11-20T01:53:49.211Z,3.40
2022-11-20T01:56:24.556Z,3.28
2022-11-20T01:59:02.832Z,3.17
2022-11-20T02:01:40.106Z,3.47
2022-11-20T02:04:15.370Z,2.92
2022-11-20T02:06:54.380Z,3.28
2022-11-20T02:09:28.441Z,3.20
2022-11-20T02:12:02.724Z,3.30
2022-11-20T02:14:35.492Z,3.45
2022-11-20T02:17:10.567Z,3.40
2022-11-20T02:19:44.417Z,3.38
2022-11-20T02:22:24.222Z,3.53
2022-11-20T02:25:03.140Z,2.90
2022-11-20T02:30:12.899Z,3.30
2022-11-20T02:32:46.779Z,2.97
2022-11-20T02:35:41.812Z,3.45
2022-11-20T02:38:16.338Z,3.20
2022-11-20T02:40:55.550Z,3.58
2022-11-20T02:43:29.500Z,3.60
2022-11-20T02:46:03.297Z,3.25
2022-11-20T02:48:37.089Z,3.33
2022-11-20T02:51:10.929Z,3.15
2022-11-20T02:53:44.485Z,3.55
2022-11-20T02:56:19.937Z,3.67
2022-11-20T02:58:53.625Z,3.28
2022-11-20T03:01:27.453Z,3.40
2022-11-20T03:04:01.426Z,3.38
2022-11-20T03:06:35.479Z,3.55
2022-11-20T03:09:09.172Z,3.63
2022-11-20T03:11:44.263Z,3.60
2022-11-20T03:14:18.170Z,3.88
2022-11-20T03:16:51.979Z,3.03
2022-11-20T03:19:25.748Z,3.10
2022-11-20T03:21:59.644Z,3.85
2022-11-20T03:24:33.235Z,3.33
2022-11-20T03:27:08.688Z,3.00
2022-11-20T03:29:42.307Z,3.30
2022-11-20T03:32:16.113Z,3.15
2022-11-20T03:34:49.798Z,3.08
2022-11-20T03:37:23.524Z,3.38
2022-11-20T03:39:57.104Z,3.33
2022-11-20T03:42:47.647Z,2.72
2022-11-20T03:45:21.303Z,3.33
2022-11-20T03:47:55.127Z,3.05
2022-11-20T03:50:28.710Z,3.63
2022-11-20T03:53:02.791Z,3.08
2022-11-20T03:55:36.279Z,3.20
2022-11-20T03:58:11.589Z,3.30
2022-11-20T04:00:45.325Z,2.95
2022-11-20T04:03:19.195Z,3.13
2022-11-20T04:05:52.823Z,2.97
2022-11-20T04:08:26.668Z,3.05
2022-11-20T04:11:10.596Z,2.90
2022-11-20T04:13:49.869Z,2.95
2022-11-20T04:16:24.631Z,2.90
2022-11-20T04:18:59.816Z,3.05
2022-11-20T04:21:33.504Z,2.75
2022-11-20T04:24:08.212Z,3.00
2022-11-20T04:26:42.155Z,3.40
2022-11-20T04:29:17.431Z,2.78
2022-11-20T04:31:51.062Z,3.33
2022-11-20T04:34:24.758Z,3.33
2022-11-20T04:36:58.287Z,2.90
2022-11-20T04:39:32.147Z,3.05
2022-11-20T04:42:23.378Z,3.33
2022-11-20T04:44:59.092Z,4.22
2022-11-20T04:47:32.828Z,3.15
2022-11-20T04:50:07.743Z,3.20
2022-11-20T04:52:41.503Z,2.78
2022-11-20T04:55:15.506Z,3.08
2022-11-20T04:57:52.608Z,3.47
2022-11-20T05:00:27.814Z,3.15
2022-11-20T05:03:01.553Z,3.28
2022-11-20T05:05:35.971Z,2.95
2022-11-20T05:08:09.592Z,3.40
2022-11-20T05:10:43.447Z,3.03
2022-11-20T05:13:17.251Z,3.30
2022-11-20T05:15:52.595Z,2.75
2022-11-20T05:18:26.173Z,3.22
2022-11-20T05:21:00.545Z,3.35
2022-11-20T05:23:34.901Z,3.28
2022-11-20T05:26:10.197Z,3.63
2022-11-20T05:28:43.996Z,3.08
2022-11-20T05:31:26.652Z,3.63
2022-11-20T05:34:01.063Z,3.28
2022-11-20T05:36:35.642Z,3.47
2022-11-20T05:39:09.265Z,3.55
2022-11-20T05:41:42.989Z,3.42
2022-11-20T05:44:16.946Z,2.85
2022-11-20T05:46:52.119Z,3.35
2022-11-20T05:49:25.827Z,3.10
2022-11-20T05:51:59.669Z,3.63
2022-11-20T05:54:33.611Z,3.20
2022-11-20T05:57:07.470Z,3.63
2022-11-20T05:59:41.153Z,3.53
2022-11-20T06:02:16.377Z,3.90
2022-11-20T06:04:50.079Z,3.67
2022-11-20T06:07:23.960Z,3.50
2022-11-20T06:09:57.520Z,3.35
2022-11-20T06:12:33.646Z,3.58
2022-11-20T06:15:08.233Z,3.40
2022-11-20T06:17:43.576Z,3.38
2022-11-20T06:20:17.502Z,4.18
2022-11-20T06:22:51.276Z,4.15
2022-11-20T06:25:24.808Z,4.82
2022-11-20T06:27:58.625Z,5.25
2022-11-20T06:30:32.155Z,4.47
2022-11-20T06:33:07.532Z,5.63
2022-11-20T06:35:41.185Z,6.57
2022-11-20T06:38:14.979Z,6.93
2022-11-20T06:40:48.568Z,6.30
2022-11-20T06:43:22.368Z,6.47
2022-11-20T06:45:56.948Z,6.22
2022-11-20T06:48:32.204Z,7.05
2022-11-20T06:51:07.225Z,7.03
2022-11-20T06:53:41.273Z,7.13
2022-11-20T06:56:15.127Z,7.00
2022-11-20T06:58:49.000Z,7.10
2022-11-20T07:01:22.597Z,6.40
2022-11-20T07:03:57.827Z,5.63
2022-11-20T07:06:31.538Z,5.72
2022-11-20T07:09:09.898Z,5.45
2022-11-20T07:11:46.667Z,5.63
2022-11-20T07:14:20.446Z,4.68
2022-11-20T07:16:54.070Z,5.20
2022-11-20T07:19:29.284Z,5.13
2022-11-20T07:22:02.886Z,4.55
2022-11-20T07:24:36.808Z,4.32
2022-11-20T07:27:10.584Z,4.53
2022-11-20T07:29:44.377Z,4.45
2022-11-20T07:32:18.139Z,5.03
2022-11-20T07:34:53.532Z,4.82
2022-11-20T07:37:27.192Z,4.18
2022-11-20T07:40:00.903Z,4.60
2022-11-20T07:42:34.567Z,4.13
2022-11-20T07:45:08.920Z,4.50
2022-11-20T07:47:42.579Z,4.13
2022-11-20T07:50:18.779Z,3.90
2022-11-20T07:52:53.167Z,4.22
2022-11-20T07:55:26.918Z,3.97
2022-11-20T07:58:00.473Z,4.63
2022-11-20T08:00:34.441Z,4.22
2022-11-20T08:03:09.074Z,4.30
2022-11-20T08:05:44.694Z,4.30
2022-11-20T08:08:18.260Z,3.90
2022-11-20T08:10:52.015Z,4.15
2022-11-20T08:13:43.067Z,3.92
2022-11-20T08:16:17.089Z,3.97
2022-11-20T08:18:50.710Z,3.72
2022-11-20T08:21:25.897Z,4.25
2022-11-20T08:24:00.072Z,3.55
2022-11-20T08:26:34.269Z,3.85
2022-11-20T08:29:08.270Z,3.33
2022-11-20T08:31:41.979Z,3.60
2022-11-20T08:34:18.993Z,3.95
2022-11-20T08:36:54.455Z,3.25
2022-11-20T08:39:28.049Z,3.58
2022-11-20T08:42:01.842Z,4.13
2022-11-20T08:44:35.356Z,3.45
2022-11-20T08:47:09.258Z,3.17
2022-11-20T08:49:42.762Z,3.22
2022-11-20T08:52:17.977Z,2.88
2022-11-20T08:54:51.711Z,3.00
2022-11-20T08:57:25.554Z,3.03
2022-11-20T09:02:53.293Z,2.80
2022-11-20T09:05:26.975Z,3.05
2022-11-20T09:08:02.157Z,2.75
2022-11-20T09:10:35.914Z,3.03
2022-11-20T09:13:09.658Z,3.20
2022-11-20T09:15:43.238Z,2.92
2022-11-20T09:18:17.149Z,2.78
2022-11-20T09:20:51.014Z,2.92
2022-11-20T09:23:26.374Z,3.33
2022-11-20T09:26:00.655Z,3.55
2022-11-20T09:28:35.035Z,3.63
2022-11-20T09:31:09.784Z,3.55
2022-11-20T09:33:43.900Z,3.88
2022-11-20T09:36:19.457Z,3.75
2022-11-20T09:38:54.816Z,3.47
2022-11-20T09:41:58.481Z,4.00
2022-11-20T09:44:50.888Z,3.20
2022-11-20T09:47:35.142Z,3.40
2022-11-20T09:50:25.783Z,3.78
2022-11-20T09:53:12.873Z,3.63
2022-11-20T09:55:49.598Z,3.30
2022-11-20T09:58:33.614Z,3.90
2022-11-20T10:01:13.313Z,3.90
2022-11-20T10:03:56.105Z,3.25
2022-11-20T10:06:33.207Z,3.88
2022-11-20T10:09:18.875Z,3.78
2022-11-20T10:12:07.818Z,3.70
2022-11-20T10:14:56.807Z,3.88
2022-11-20T10:17:47.175Z,3.45
2022-11-20T10:20:30.545Z,3.47
2022-11-20T10:23:26.537Z,3.70
2022-11-20T10:26:04.240Z,3.67
2022-11-20T10:28:59.198Z,3.35
2022-11-20T10:31:37.091Z,3.10
2022-11-20T10:34:23.319Z,3.45
2022-11-20T10:37:00.410Z,3.28
2022-11-20T10:39:41.671Z,3.22
2022-11-20T10:42:19.604Z,2.80
2022-11-20T10:45:06.878Z,2.65
2022-11-20T10:47:40.731Z,3.40
2022-11-20T10:50:22.628Z,2.92
2022-11-20T10:53:07.297Z,2.88
2022-11-20T10:55:47.143Z,3.03
2022-11-20T10:58:39.691Z,2.70
2022-11-20T11:01:19.324Z,2.80
2022-11-20T11:03:54.767Z,2.67
2022-11-20T11:06:35.997Z,2.67
2022-11-20T11:09:16.457Z,2.42
2022-11-20T11:11:50.486Z,2.58
2022-11-20T11:14:25.570Z,2.90
2022-11-20T11:17:01.474Z,3.63
2022-11-20T11:19:35.140Z,3.00
2022-11-20T11:22:18.772Z,3.08
2022-11-20T11:24:54.775Z,2.95
2022-11-20T11:27:28.952Z,3.38
2022-11-20T11:30:15.967Z,2.75
2022-11-20T11:32:51.505Z,2.80
2022-11-20T11:35:27.278Z,3.10
2022-11-20T11:38:06.368Z,2.53
2022-11-20T11:40:41.905Z,2.45
2022-11-20T11:43:39.956Z,2.60
2022-11-20T11:46:27.980Z,2.25
2022-11-20T11:49:14.515Z,2.30
2022-11-20T11:52:01.416Z,2.38
2022-11-20T11:54:42.844Z,2.05
2022-11-20T11:57:25.263Z,1.98
2022-11-20T12:00:04.267Z,2.45
2022-11-20T12:05:21.732Z,2.30
2022-11-20T12:08:00.093Z,2.25
2022-11-20T12:10:43.322Z,2.22
2022-11-20T12:13:38.628Z,2.65
2022-11-20T12:16:15.887Z,2.30
2022-11-20T12:18:52.103Z,2.38
2022-11-20T12:21:36.351Z,2.10
2022-11-20T12:24:34.438Z,2.40
2022-11-20T12:27:29.158Z,2.30
2022-11-20T12:30:05.400Z,2.13
2022-11-20T12:33:14.955Z,2.38
2022-11-20T12:36:05.772Z,2.47
2022-11-20T12:38:59.474Z,2.30
2022-11-20T12:42:05.693Z,2.08
2022-11-20T12:45:13.703Z,2.30
2022-11-20T12:48:16.832Z,1.92
2022-11-20T12:51:15.547Z,2.30
2022-11-20T12:54:02.231Z,2.00
2022-11-20T12:56:45.349Z,2.50
2022-11-20T12:59:31.993Z,2.38
2022-11-20T13:02:21.096Z,2.30
2022-11-20T13:07:37.293Z,2.03
2022-11-20T13:10:21.304Z,3.60
2022-11-20T13:13:01.101Z,3.50
2022-11-20T13:15:46.544Z,2.78
2022-11-20T13:18:21.055Z,2.00
2022-11-20T13:20:54.789Z,1.92
2022-11-20T13:23:29.790Z,2.15
2022-11-20T13:26:17.731Z,2.13
2022-11-20T13:29:03.723Z,2.83
2022-11-20T13:31:40.923Z,2.75
2022-11-20T13:34:24.974Z,2.13
2022-11-20T13:37:01.817Z,2.33
2022-11-20T13:39:37.474Z,2.90
2022-11-20T13:42:27.173Z,2.35
2022-11-20T13:45:04.130Z,2.33
2022-11-20T13:47:38.258Z,2.40
2022-11-20T13:50:16.216Z,2.17
2022-11-20T13:53:10.045Z,2.25
2022-11-20T13:55:53.145Z,2.50
2022-11-20T13:58:42.497Z,2.30
2022-11-20T14:01:19.872Z,2.20
2022-11-20T14:04:10.394Z,2.47
2022-11-20T14:06:46.140Z,2.20
2022-11-20T14:09:28.894Z,2.17
2022-11-20T14:12:04.465Z,2.75
2022-11-20T14:14:50.326Z,2.25
2022-11-20T14:17:26.339Z,2.72
2022-11-20T14:20:03.352Z,3.10
2022-11-20T14:22:37.471Z,2.38
2022-11-20T14:25:24.194Z,2.22
2022-11-20T14:28:00.522Z,2.30
2022-11-20T14:30:45.095Z,2.50
2022-11-20T14:33:20.857Z,3.38
2022-11-20T14:35:56.564Z,3.70
2022-11-20T14:38:33.421Z,4.30
2022-11-20T14:41:10.619Z,3.90
2022-11-20T14:43:48.087Z,3.40
2022-11-20T14:46:23.798Z,3.45
2022-11-20T14:48:59.887Z,2.35
2022-11-20T14:51:35.917Z,2.53
2022-11-20T14:54:11.579Z,2.10
2022-11-20T14:56:56.337Z,2.13
2022-11-20T14:59:31.790Z,2.40
2022-11-20T15:02:10.835Z,2.45
2022-11-20T15:04:49.275Z,2.20
2022-11-20T15:07:27.310Z,2.78
2022-11-20T15:10:05.475Z,3.78
2022-11-20T15:12:42.398Z,3.00
2022-11-20T15:15:21.327Z,3.28
2022-11-20T15:17:56.439Z,2.78
2022-11-20T15:20:33.534Z,2.88
2022-11-20T15:23:12.895Z,2.90
2022-11-20T15:25:47.814Z,3.10
2022-11-20T15:28:23.718Z,2.67
2022-11-20T15:30:57.918Z,2.60
2022-11-20T15:33:33.833Z,2.78
2022-11-20T15:36:07.961Z,3.08
2022-11-20T15:38:41.619Z,3.10
2022-11-20T15:41:15.516Z,3.00
2022-11-20T15:43:49.163Z,2.70
2022-11-20T15:46:28.167Z,2.80
2022-11-20T15:49:02.971Z,2.97
2022-11-20T15:51:38.660Z,3.08
2022-11-20T15:54:13.681Z,2.80
2022-11-20T15:56:47.544Z,2.72
2022-11-20T15:59:21.192Z,3.85
2022-11-20T16:01:54.964Z,2.80
2022-11-20T16:04:29.777Z,2.78
2022-11-20T16:07:03.612Z,3.00
2022-11-20T16:09:37.128Z,2.58
2022-11-20T16:12:31.657Z,2.33
2022-11-20T16:15:23.613Z,2.53
2022-11-20T16:17:57.278Z,1.70
2022-11-20T16:20:33.122Z,2.28
2022-11-20T16:23:07.539Z,2.25
2022-11-20T16:25:41.038Z,2.25
2022-11-20T16:28:18.939Z,2.45
2022-11-20T16:30:52.972Z,2.72
2022-11-20T16:33:26.674Z,2.65
2022-11-20T16:36:08.943Z,3.55
2022-11-20T16:38:43.121Z,2.90
2022-11-20T16:41:16.766Z,2.72
2022-11-20T16:43:52.445Z,3.03
2022-11-20T16:46:28.563Z,2.53
2022-11-20T16:49:04.282Z,2.90
2022-11-20T16:51:39.214Z,2.88
2022-11-20T16:54:20.872Z,3.72
2022-11-20T16:56:55.133Z,3.75
2022-11-20T16:59:28.963Z,3.28
2022-11-20T17:02:03.012Z,3.83
2022-11-20T17:04:36.950Z,3.90
2022-11-20T17:07:12.381Z,3.30
2022-11-20T17:09:46.374Z,3.28
2022-11-20T17:12:20.020Z,3.30
2022-11-20T17:14:54.013Z,4.07
2022-11-20T17:17:27.594Z,3.67
2022-11-20T17:20:01.238Z,3.10
2022-11-20T17:22:36.555Z,3.38
2022-11-20T17:25:10.542Z,3.80
2022-11-20T17:27:44.175Z,4.13
2022-11-20T17:30:18.000Z,4.10
2022-11-20T17:32:51.510Z,3.63
2022-11-20T17:35:25.214Z,4.13
2022-11-20T17:38:00.047Z,4.30
2022-11-20T17:40:34.040Z,4.50
2022-11-20T17:43:07.527Z,4.43
2022-11-20T17:45:41.178Z,4.32
2022-11-20T17:48:14.793Z,5.57
2022-11-20T17:50:48.597Z,5.38
2022-11-20T17:53:23.482Z,5.50
2022-11-20T17:56:26.562Z,5.53
2022-11-20T17:59:00.816Z,5.90
2022-11-20T18:01:35.194Z,4.72
2022-11-20T18:04:08.717Z,4.72
2022-11-20T18:06:43.669Z,6.00
2022-11-20T18:09:18.743Z,5.30
2022-11-20T18:11:52.404Z,4.97
2022-11-20T18:14:32.657Z,5.43
2022-11-20T18:17:09.357Z,7.63
2022-11-20T18:20:07.278Z,6.13
2022-11-20T18:22:39.146Z,5.93
2022-11-20T18:25:14.020Z,5.82
2022-11-20T18:27:47.757Z,6.18
2022-11-20T18:30:21.227Z,6.13
2022-11-20T18:32:55.680Z,6.00
2022-11-20T18:35:29.270Z,6.20
2022-11-20T18:38:02.998Z,6.03
2022-11-20T18:40:38.241Z,6.25
2022-11-20T18:43:30.281Z,6.70
2022-11-20T18:46:04.551Z,7.18
2022-11-20T18:48:38.749Z,6.82
2022-11-20T18:51:16.118Z,6.68
2022-11-20T18:53:49.886Z,6.90
2022-11-20T18:56:24.701Z,6.50
2022-11-20T18:59:01.555Z,6.07
2022-11-20T19:01:36.260Z,5.97
2022-11-20T19:04:11.884Z,5.68
2022-11-20T19:06:49.238Z,6.30
2022-11-20T19:09:24.724Z,6.55
2022-11-20T19:12:00.194Z,7.55
2022-11-20T19:14:34.254Z,7.00
2022-11-20T19:17:10.264Z,7.13
2022-11-20T19:19:44.289Z,7.28
2022-11-20T19:22:18.106Z,9.05
2022-11-20T19:24:51.983Z,10.50
2022-11-20T19:27:26.918Z,10.43
2022-11-20T19:30:03.385Z,12.70
2022-11-20T19:32:37.458Z,12.15
2022-11-20T19:35:11.276Z,12.98
2022-11-20T19:37:45.037Z,14.10
2022-11-20T19:40:18.928Z,15.45
2022-11-20T19:42:53.832Z,14.45
2022-11-20T19:45:27.673Z,12.77
2022-11-20T19:48:08.828Z,12.65
2022-11-20T19:50:42.782Z,12.50
2022-11-20T19:53:16.679Z,12.75
2022-11-20T19:55:57.858Z,13.40
2022-11-20T19:58:32.942Z,12.85
2022-11-20T20:01:08.456Z,13.07
2022-11-20T20:03:42.596Z,13.13
2022-11-20T20:06:21.516Z,13.05
2022-11-20T20:08:56.528Z,13.05
2022-11-20T20:11:32.784Z,13.32
2022-11-20T20:14:09.871Z,14.23
2022-11-20T20:16:44.154Z,13.52
2022-11-20T20:19:17.945Z,12.10
2022-11-20T20:21:51.639Z,12.25
2022-11-20T20:24:25.226Z,12.25
2022-11-20T20:26:58.975Z,12.52
2022-11-20T20:29:33.818Z,13.30
2022-11-20T20:32:07.606Z,15.77
2022-11-20T20:34:41.092Z,13.25
2022-11-20T20:37:14.805Z,13.23
2022-11-20T20:39:48.693Z,13.30
2022-11-20T20:42:22.638Z,13.43
2022-11-20T20:45:11.227Z,13.35
2022-11-20T20:50:19.023Z,12.18
2022-11-20T20:52:52.817Z,13.38
2022-11-20T20:55:26.459Z,13.93
2022-11-20T20:58:00.238Z,15.65
2022-11-20T21:00:35.265Z,13.85
2022-11-20T21:03:09.053Z,14.15
2022-11-20T21:05:42.768Z,14.77
2022-11-20T21:08:22.623Z,13.65
2022-11-20T21:11:01.872Z,13.25
2022-11-20T21:13:37.006Z,14.27
2022-11-20T21:16:13.016Z,14.55
2022-11-20T21:18:47.220Z,14.50
2022-11-20T21:21:38.666Z,14.68
2022-11-20T21:24:12.397Z,15.23
2022-11-20T21:26:46.084Z,14.15
2022-11-20T21:29:19.889Z,14.73
2022-11-20T21:31:55.341Z,15.10
2022-11-20T21:34:29.088Z,14.50
2022-11-20T21:37:02.617Z,14.38
2022-11-20T21:39:50.450Z,14.80
2022-11-20T21:42:24.226Z,14.50
2022-11-20T21:44:58.045Z,15.23
2022-11-20T21:47:32.900Z,14.93
2022-11-20T21:50:07.132Z,14.88
2022-11-20T21:52:40.712Z,14.85
2022-11-20T21:55:14.511Z,14.70
2022-11-20T21:57:48.202Z,15.85
2022-11-20T22:00:22.261Z,15.48
2022-11-20T22:02:57.199Z,15.43
2022-11-20T22:05:31.040Z,15.55
2022-11-20T22:08:04.790Z,14.55
2022-11-20T22:10:38.702Z,15.38
2022-11-20T22:13:29.659Z,16.50
2022-11-20T22:16:03.456Z,16.83
2022-11-20T22:18:43.609Z,16.02
2022-11-20T22:21:18.789Z,15.93
2022-11-20T22:23:52.992Z,16.92
2022-11-20T22:26:28.892Z,17.67
2022-11-20T22:29:02.597Z,16.60
2022-11-20T22:31:36.539Z,15.93
2022-11-20T22:34:13.494Z,16.80
2022-11-20T22:36:47.280Z,16.98
2022-11-20T22:39:22.725Z,15.85
2022-11-20T22:41:56.357Z,17.38
2022-11-20T22:44:29.869Z,16.98
2022-11-20T22:47:08.703Z,16.80
2022-11-20T22:49:46.030Z,17.73
2022-11-20T22:52:19.903Z,16.38
2022-11-20T22:54:53.562Z,17.00
2022-11-20T22:57:27.249Z,16.85
2022-11-20T23:00:00.765Z,17.95
2022-11-20T23:02:34.756Z,17.75
2022-11-20T23:05:09.871Z,18.97
2022-11-20T23:07:44.233Z,17.95
2022-11-20T23:10:17.880Z,17.80
2022-11-20T23:12:51.653Z,17.15
2022-11-20T23:15:25.246Z,18.13
2022-11-20T23:17:58.990Z,18.10
2022-11-20T23:20:36.041Z,17.45
2022-11-20T23:23:09.649Z,17.58
2022-11-20T23:25:43.291Z,17.17
2022-11-20T23:28:17.145Z,16.67
2022-11-20T23:30:50.864Z,17.98
2022-11-20T23:33:25.008Z,18.05
2022-11-20T23:35:59.814Z,17.17
2022-11-20T23:38:33.515Z,16.42
2022-11-20T23:41:07.216Z,15.40
2022-11-20T23:43:41.326Z,16.60
2022-11-20T23:46:16.765Z,14.43
2022-11-20T23:48:50.736Z,15.55
2022-11-20T23:51:25.592Z,15.10
2022-11-20T23:54:04.332Z,16.02
2022-11-20T23:56:38.365Z,16.98
2022-11-20T23:59:12.081Z,15.88
